createdAt,value
2023-04-18T00:01:43.280Z,98797.92
2023-04-18T00:04:11.050Z,98799.10
2023-04-18T00:06:38.952Z,98797.41
2023-04-18T00:09:06.499Z,98797.58
2023-04-18T00:11:34.096Z,98800.30
2023-04-18T00:14:01.643Z,98800.95
2023-04-18T00:17:07.082Z,98801.79
2023-04-18T00:19:35.310Z,98804.86
2023-04-18T00:22:02.983Z,98805.89
2023-04-18T00:24:30.502Z,98807.91
2023-04-18T00:26:58.094Z,98803.11
2023-04-18T00:29:25.615Z,98806.99
2023-04-18T00:31:53.236Z,98800.65
2023-04-18T00:34:20.822Z,98797.76
2023-04-18T00:36:48.383Z,98799.11
2023-04-18T00:39:15.950Z,98801.68
2023-04-18T00:41:43.522Z,98800.86
2023-04-18T00:44:11.205Z,98798.35
2023-04-18T00:46:38.985Z,98800.27
2023-04-18T00:49:06.942Z,98797.91
2023-04-18T00:51:35.411Z,98800.52
2023-04-18T00:54:06.243Z,98803.09
2023-04-18T00:56:35.094Z,98797.97
2023-04-18T00:59:02.953Z,98798.48
2023-04-18T01:01:30.618Z,98795.23
2023-04-18T01:03:58.233Z,98790.99
2023-04-18T01:06:26.949Z,98785.20
2023-04-18T01:08:56.239Z,98783.88
2023-04-18T01:11:24.014Z,98788.34
2023-04-18T01:14:08.301Z,98791.89
2023-04-18T01:16:36.055Z,98792.92
2023-04-18T01:19:04.709Z,98795.34
2023-04-18T01:22:10.306Z,98791.94
2023-04-18T01:24:37.831Z,98793.64
2023-04-18T01:27:05.419Z,98794.33
2023-04-18T01:29:32.922Z,98791.10
2023-04-18T01:32:00.494Z,98794.34
2023-04-18T01:34:28.252Z,98793.87
2023-04-18T01:36:55.774Z,98797.27
2023-04-18T01:39:23.428Z,98797.64
2023-04-18T01:41:50.977Z,98799.17
2023-04-18T01:44:18.576Z,98797.66
2023-04-18T01:46:46.166Z,98798.33
2023-04-18T01:49:13.749Z,98798.52
2023-04-18T01:51:41.255Z,98796.46
2023-04-18T01:54:08.920Z,98793.23
2023-04-18T01:56:36.478Z,98792.42
2023-04-18T01:59:04.070Z,98790.54
2023-04-18T02:01:31.613Z,98791.55
2023-04-18T02:03:59.320Z,98793.40
2023-04-18T02:06:26.914Z,98795.79
2023-04-18T02:08:54.475Z,98794.80
2023-04-18T02:11:22.009Z,98791.42
2023-04-18T02:13:49.556Z,98794.01
2023-04-18T02:16:17.127Z,98794.69
2023-04-18T02:18:44.727Z,98795.40
2023-04-18T02:21:12.290Z,98794.73
2023-04-18T02:23:39.861Z,98794.28
2023-04-18T02:26:07.530Z,98791.18
2023-04-18T02:28:35.171Z,98789.64
2023-04-18T02:31:02.751Z,98792.36
2023-04-18T02:33:30.398Z,98792.70
2023-04-18T02:35:58.024Z,98789.30
2023-04-18T02:38:25.539Z,98790.98
2023-04-18T02:40:53.074Z,98790.13
2023-04-18T02:43:20.674Z,98790.79
2023-04-18T02:45:48.261Z,98792.98
2023-04-18T02:48:16.073Z,98795.65
2023-04-18T02:50:43.615Z,98796.28
2023-04-18T02:53:11.224Z,98793.50
2023-04-18T02:55:38.806Z,98801.66
2023-04-18T02:58:06.316Z,98798.41
2023-04-18T03:00:34.292Z,98792.79
2023-04-18T03:03:01.908Z,98796.88
2023-04-18T03:05:29.546Z,98800.64
2023-04-18T03:07:57.105Z,98801.32
2023-04-18T03:10:24.630Z,98799.94
2023-04-18T03:12:52.150Z,98797.86
2023-04-18T03:15:19.802Z,98797.50
2023-04-18T03:17:47.522Z,98796.77
2023-04-18T03:20:15.107Z,98800.64
2023-04-18T03:22:42.612Z,98804.58
2023-04-18T03:25:10.196Z,98804.73
2023-04-18T03:27:37.734Z,98808.45
2023-04-18T03:30:07.283Z,98806.75
2023-04-18T03:32:34.805Z,98807.25
2023-04-18T03:35:02.861Z,98809.82
2023-04-18T03:37:30.518Z,98811.72
2023-04-18T03:39:58.136Z,98812.24
2023-04-18T03:42:25.627Z,98813.10
2023-04-18T03:44:53.186Z,98814.30
2023-04-18T03:47:20.774Z,98814.63
2023-04-18T03:49:48.457Z,98816.33
2023-04-18T03:52:15.985Z,98817.34
2023-04-18T03:54:43.511Z,98815.98
2023-04-18T03:57:11.036Z,98816.98
2023-04-18T03:59:38.575Z,98820.72
2023-04-18T04:02:06.221Z,98821.68
2023-04-18T04:04:33.950Z,98826.76
2023-04-18T04:07:01.617Z,98832.90
2023-04-18T04:09:29.130Z,98834.24
2023-04-18T04:11:56.662Z,98838.94
2023-04-18T04:14:24.262Z,98841.20
2023-04-18T04:16:51.857Z,98847.79
2023-04-18T04:19:19.400Z,98845.20
2023-04-18T04:21:46.949Z,98850.59
2023-04-18T04:24:14.649Z,98850.50
2023-04-18T04:26:42.503Z,98852.11
2023-04-18T04:29:10.154Z,98851.98
2023-04-18T04:31:37.689Z,98856.44
2023-04-18T04:34:05.242Z,98852.23
2023-04-18T04:36:32.852Z,98858.27
2023-04-18T04:39:00.537Z,98859.70
2023-04-18T04:41:28.040Z,98862.48
2023-04-18T04:43:55.539Z,98864.05
2023-04-18T04:46:23.347Z,98867.34
2023-04-18T04:48:50.950Z,98872.18
2023-04-18T04:51:18.472Z,98870.83
2023-04-18T04:53:45.990Z,98868.88
2023-04-18T04:56:13.720Z,98874.05
2023-04-18T04:58:41.250Z,98875.33
2023-04-18T05:01:09.036Z,98871.73
2023-04-18T05:03:36.892Z,98872.27
2023-04-18T05:06:05.090Z,98877.84
2023-04-18T05:08:32.610Z,98872.13
2023-04-18T05:11:01.822Z,98872.54
2023-04-18T05:13:29.332Z,98877.55
2023-04-18T05:15:56.925Z,98880.54
2023-04-18T05:18:24.639Z,98879.90
2023-04-18T05:20:52.211Z,98880.09
2023-04-18T05:23:19.719Z,98882.45
2023-04-18T05:25:47.276Z,98882.86
2023-04-18T05:28:14.794Z,98889.94
2023-04-18T05:30:42.586Z,98899.52
2023-04-18T05:33:10.126Z,98903.38
2023-04-18T05:35:37.724Z,98906.02
2023-04-18T05:38:05.282Z,98909.67
2023-04-18T05:40:32.868Z,98911.20
2023-04-18T05:43:00.951Z,98915.94
2023-04-18T05:45:28.572Z,98914.48
2023-04-18T05:47:56.101Z,98914.70
2023-04-18T05:50:23.686Z,98920.95
2023-04-18T05:52:51.207Z,98916.17
2023-04-18T05:55:18.769Z,98921.38
2023-04-18T05:57:46.417Z,98920.00
2023-04-18T06:00:14.489Z,98923.55
2023-04-18T06:02:42.141Z,98924.16
2023-04-18T06:05:10.336Z,98922.75
2023-04-18T06:07:38.722Z,98925.56
2023-04-18T06:10:06.995Z,98923.58
2023-04-18T06:12:34.813Z,98924.39
2023-04-18T06:15:02.373Z,98925.63
2023-04-18T06:17:29.914Z,98930.59
2023-04-18T06:19:57.441Z,98931.98
2023-04-18T06:22:25.021Z,98934.21
2023-04-18T06:24:52.600Z,98926.01
2023-04-18T06:27:30.584Z,98932.27
2023-04-18T06:29:59.028Z,98933.80
2023-04-18T06:32:26.784Z,98937.08
2023-04-18T06:34:54.356Z,98936.52
2023-04-18T06:37:22.199Z,98939.27
2023-04-18T06:39:49.751Z,98942.54
2023-04-18T06:42:17.340Z,98942.34
2023-04-18T06:44:44.813Z,98943.80
2023-04-18T06:47:12.578Z,98947.85
2023-04-18T06:49:40.106Z,98948.82
2023-04-18T06:52:07.812Z,98952.96
2023-04-18T06:54:35.364Z,98953.54
2023-04-18T06:57:03.047Z,98954.42
2023-04-18T06:59:30.627Z,98957.05
2023-04-18T07:01:58.215Z,98958.10
2023-04-18T07:04:25.876Z,98962.18
2023-04-18T07:06:53.590Z,98963.78
2023-04-18T07:09:21.140Z,98963.10
2023-04-18T07:11:48.664Z,98967.58
2023-04-18T07:14:16.672Z,98969.15
2023-04-18T07:16:44.357Z,98967.40
2023-04-18T07:19:11.978Z,98972.84
2023-04-18T07:21:39.691Z,98972.60
2023-04-18T07:24:07.465Z,98974.26
2023-04-18T07:26:35.229Z,98974.11
2023-04-18T07:29:02.791Z,98974.91
2023-04-18T07:31:30.467Z,98973.15
2023-04-18T07:33:58.522Z,98974.14
2023-04-18T07:36:26.080Z,98973.91
2023-04-18T07:38:53.627Z,98976.30
2023-04-18T07:41:21.325Z,98974.04
2023-04-18T07:43:48.906Z,98976.84
2023-04-18T07:46:16.472Z,98980.35
2023-04-18T07:48:44.214Z,98981.58
2023-04-18T07:51:12.096Z,98981.61
2023-04-18T07:53:39.640Z,98987.64
2023-04-18T07:56:07.378Z,98990.54
2023-04-18T07:58:35.040Z,98995.61
2023-04-18T08:01:02.664Z,98991.48
2023-04-18T08:03:30.572Z,98996.34
2023-04-18T08:05:58.285Z,98990.21
2023-04-18T08:08:25.798Z,98992.83
2023-04-18T08:10:53.311Z,98993.90
2023-04-18T08:13:21.403Z,98994.73
2023-04-18T08:15:49.044Z,98996.30
2023-04-18T08:18:16.697Z,98997.70
2023-04-18T08:20:44.234Z,98997.15
2023-04-18T08:23:13.206Z,98994.27
2023-04-18T08:25:41.159Z,98997.67
2023-04-18T08:28:08.826Z,98996.72
2023-04-18T08:30:36.477Z,98997.68
2023-04-18T08:33:04.147Z,99001.78
2023-04-18T08:35:31.768Z,98999.77
2023-04-18T08:38:00.990Z,99004.54
2023-04-18T08:40:28.505Z,99001.96
2023-04-18T08:42:57.494Z,98995.34
2023-04-18T08:45:25.163Z,98996.27
2023-04-18T08:47:52.858Z,98996.06
2023-04-18T08:50:20.504Z,98998.78
2023-04-18T08:52:50.555Z,98994.63
2023-04-18T08:55:18.116Z,98995.47
2023-04-18T08:57:45.783Z,98997.05
2023-04-18T09:00:14.342Z,98995.29
2023-04-18T09:02:43.603Z,98996.22
2023-04-18T09:05:12.390Z,99002.38
2023-04-18T09:07:41.187Z,99001.34
2023-04-18T09:10:09.558Z,99001.52
2023-04-18T09:12:45.061Z,99000.02
2023-04-18T09:15:15.088Z,99002.26
2023-04-18T09:17:47.846Z,99001.02
2023-04-18T09:20:26.818Z,99000.14
2023-04-18T09:22:54.658Z,98992.02
2023-04-18T09:25:45.703Z,98987.07
2023-04-18T09:28:24.909Z,98987.64
2023-04-18T09:30:52.933Z,98990.94
2023-04-18T09:33:31.726Z,98994.56
2023-04-18T09:36:22.384Z,98991.52
2023-04-18T09:38:56.033Z,98991.55
2023-04-18T09:41:24.525Z,98989.61
2023-04-18T09:44:13.565Z,98992.64
2023-04-18T09:46:45.175Z,98992.75
2023-04-18T09:49:14.836Z,98995.50
2023-04-18T09:51:44.190Z,98989.77
2023-04-18T09:54:16.077Z,98993.54
2023-04-18T09:56:45.617Z,98994.05
2023-04-18T09:59:16.498Z,98991.38
2023-04-18T10:01:45.000Z,98986.20
2023-04-18T10:04:14.690Z,98988.60
2023-04-18T10:06:45.579Z,98992.09
2023-04-18T10:09:14.545Z,98995.84
2023-04-18T10:11:43.285Z,99003.30
2023-04-18T10:14:13.478Z,98990.08
2023-04-18T10:16:44.089Z,98988.83
2023-04-18T10:19:26.146Z,98986.20
2023-04-18T10:21:55.824Z,98984.58
2023-04-18T10:24:56.038Z,98988.43
2023-04-18T10:27:48.381Z,98984.94
2023-04-18T10:30:16.749Z,98983.95
2023-04-18T10:32:47.398Z,98984.11
2023-04-18T10:35:15.013Z,98982.70
2023-04-18T10:37:52.291Z,98984.04
2023-04-18T10:40:32.904Z,98977.35
2023-04-18T10:43:00.724Z,98976.52
2023-04-18T10:45:30.004Z,98977.48
2023-04-18T10:48:26.317Z,98969.85
2023-04-18T10:51:19.277Z,98967.89
2023-04-18T10:53:58.060Z,98966.07
2023-04-18T10:56:25.648Z,98964.84
2023-04-18T10:58:53.815Z,98963.09
2023-04-18T11:01:32.085Z,98960.39
2023-04-18T11:04:00.897Z,98963.81
2023-04-18T11:06:28.836Z,98961.52
2023-04-18T11:09:13.387Z,98961.46
2023-04-18T11:11:41.903Z,98960.50
2023-04-18T11:14:10.019Z,98959.05
2023-04-18T11:16:37.790Z,98959.10
2023-04-18T11:19:19.772Z,98961.91
2023-04-18T11:21:47.434Z,98958.86
2023-04-18T11:24:24.576Z,98953.27
2023-04-18T11:26:54.081Z,98951.21
2023-04-18T11:29:21.870Z,98951.83
2023-04-18T11:31:55.839Z,98945.55
2023-04-18T11:34:29.664Z,98945.45
2023-04-18T11:36:57.990Z,98942.27
2023-04-18T11:39:25.605Z,98941.95
2023-04-18T11:41:53.286Z,98940.88
2023-04-18T11:44:24.721Z,98945.75
2023-04-18T11:46:53.305Z,98942.70
2023-04-18T11:49:28.380Z,98939.60
2023-04-18T11:51:55.953Z,98935.02
2023-04-18T11:54:35.629Z,98940.12
2023-04-18T11:57:03.284Z,98937.50
2023-04-18T11:59:30.890Z,98931.68
2023-04-18T12:02:15.239Z,98928.11
2023-04-18T12:04:58.987Z,98934.07
2023-04-18T12:07:41.768Z,98927.17
2023-04-18T12:10:25.062Z,98924.14
2023-04-18T12:12:54.796Z,98922.10
2023-04-18T12:15:26.350Z,98930.20
2023-04-18T12:18:02.327Z,98916.98
2023-04-18T12:20:38.528Z,98914.94
2023-04-18T12:23:06.592Z,98920.16
2023-04-18T12:25:34.435Z,98920.24
2023-04-18T12:28:15.425Z,98919.10
2023-04-18T12:30:43.133Z,98918.70
2023-04-18T12:33:11.094Z,98919.33
2023-04-18T12:35:38.756Z,98917.27
2023-04-18T12:38:06.335Z,98911.83
2023-04-18T12:40:33.888Z,98916.20
2023-04-18T12:43:03.536Z,98912.64
2023-04-18T12:45:31.389Z,98909.60
2023-04-18T12:47:59.188Z,98910.25
2023-04-18T12:50:27.332Z,98909.77
2023-04-18T12:53:00.349Z,98911.52
2023-04-18T12:55:29.110Z,98913.91
2023-04-18T12:57:56.665Z,98913.05
2023-04-18T13:00:30.354Z,98910.31
2023-04-18T13:02:58.908Z,98909.26
2023-04-18T13:05:31.615Z,98907.11
2023-04-18T13:10:32.197Z,98902.72
2023-04-18T13:12:59.876Z,98898.52
2023-04-18T13:15:27.731Z,98897.55
2023-04-18T13:17:55.513Z,98900.92
2023-04-18T13:20:23.099Z,98894.70
2023-04-18T13:22:50.671Z,98897.45
2023-04-18T13:25:18.247Z,98901.45
2023-04-18T13:27:45.843Z,98900.48
2023-04-18T13:30:13.565Z,98896.41
2023-04-18T13:32:41.880Z,98896.46
2023-04-18T13:35:11.265Z,98894.11
2023-04-18T13:37:39.657Z,98893.35
2023-04-18T13:40:08.082Z,98893.14
2023-04-18T13:42:37.260Z,98896.27
2023-04-18T13:45:05.338Z,98892.47
2023-04-18T13:47:32.938Z,98891.33
2023-04-18T13:50:00.582Z,98891.52
2023-04-18T13:52:28.171Z,98896.11
2023-04-18T13:54:55.747Z,98897.83
2023-04-18T13:57:23.428Z,98896.09
2023-04-18T13:59:51.073Z,98895.28
2023-04-18T14:02:18.690Z,98896.83
2023-04-18T14:04:46.611Z,98900.94
2023-04-18T14:07:14.279Z,98895.48
2023-04-18T14:09:41.980Z,98897.31
2023-04-18T14:12:12.254Z,98899.56
2023-04-18T14:14:39.865Z,98898.13
2023-04-18T14:17:07.573Z,98898.20
2023-04-18T14:19:35.181Z,98899.16
2023-04-18T14:22:02.748Z,98894.08
2023-04-18T14:24:30.302Z,98895.27
2023-04-18T14:26:57.873Z,98894.89
2023-04-18T14:29:25.386Z,98891.90
2023-04-18T14:31:52.957Z,98895.47
2023-04-18T14:34:20.500Z,98888.31
2023-04-18T14:36:48.058Z,98890.89
2023-04-18T14:39:15.794Z,98891.76
2023-04-18T14:41:43.446Z,98893.38
2023-04-18T14:44:10.997Z,98892.41
2023-04-18T14:46:38.639Z,98897.92
2023-04-18T14:49:06.237Z,98892.52
2023-04-18T14:51:33.849Z,98897.12
2023-04-18T14:54:01.409Z,98901.20
2023-04-18T14:56:29.003Z,98902.85
2023-04-18T14:58:56.578Z,98903.04
2023-04-18T15:01:24.129Z,98902.45
2023-04-18T15:03:51.831Z,98892.73
2023-04-18T15:06:19.560Z,98896.15
2023-04-18T15:08:47.116Z,98894.19
2023-04-18T15:11:14.717Z,98893.30
2023-04-18T15:13:42.343Z,98897.88
2023-04-18T15:16:10.071Z,98896.68
2023-04-18T15:18:37.662Z,98896.19
2023-04-18T15:21:05.305Z,98895.77
2023-04-18T15:23:32.881Z,98897.94
2023-04-18T15:26:00.583Z,98897.20
2023-04-18T15:28:28.252Z,98895.54
2023-04-18T15:30:55.890Z,98897.33
2023-04-18T15:33:23.544Z,98901.07
2023-04-18T15:35:51.152Z,98906.12
2023-04-18T15:38:18.746Z,98903.48
2023-04-18T15:40:46.334Z,98907.02
2023-04-18T15:43:13.909Z,98905.27
2023-04-18T15:45:41.596Z,98909.79
2023-04-18T15:48:09.368Z,98909.30
2023-04-18T15:50:36.930Z,98910.19
2023-04-18T15:53:04.476Z,98912.84
2023-04-18T15:55:32.073Z,98914.86
2023-04-18T15:57:59.696Z,98912.02
2023-04-18T16:00:27.407Z,98913.22
2023-04-18T16:02:55.040Z,98915.66
2023-04-18T16:05:22.720Z,98912.39
2023-04-18T16:07:50.345Z,98916.00
2023-04-18T16:10:17.937Z,98912.10
2023-04-18T16:12:45.812Z,98914.79
2023-04-18T16:15:13.383Z,98911.05
2023-04-18T16:17:40.938Z,98905.18
2023-04-18T16:20:08.863Z,98904.23
2023-04-18T16:22:37.212Z,98899.30
2023-04-18T16:25:05.179Z,98900.39
2023-04-18T16:27:33.000Z,98894.75
2023-04-18T16:30:00.734Z,98898.42
2023-04-18T16:32:28.337Z,98894.85
2023-04-18T16:34:55.978Z,98900.46
2023-04-18T16:37:23.544Z,98899.16
2023-04-18T16:39:51.075Z,98897.41
2023-04-18T16:42:18.674Z,98896.73
2023-04-18T16:44:46.214Z,98900.75
2023-04-18T16:47:13.818Z,98903.77
2023-04-18T16:49:41.886Z,98902.45
2023-04-18T16:52:09.640Z,98899.48
2023-04-18T16:54:37.218Z,98900.37
2023-04-18T16:57:04.786Z,98898.06
2023-04-18T16:59:32.369Z,98902.86
2023-04-18T17:02:00.098Z,98897.59
2023-04-18T17:04:27.785Z,98897.34
2023-04-18T17:06:58.560Z,98897.97
2023-04-18T17:09:26.235Z,98900.90
2023-04-18T17:11:53.931Z,98908.05
2023-04-18T17:14:21.502Z,98905.70
2023-04-18T17:16:51.371Z,98910.52
2023-04-18T17:19:20.458Z,98912.46
2023-04-18T17:21:47.995Z,98912.45
2023-04-18T17:24:15.753Z,98911.39
2023-04-18T17:26:43.284Z,98910.30
2023-04-18T17:29:10.988Z,98911.92
2023-04-18T17:31:38.650Z,98912.80
2023-04-18T17:34:06.620Z,98918.27
2023-04-18T17:36:34.375Z,98916.10
2023-04-18T17:39:02.000Z,98918.54
2023-04-18T17:41:29.668Z,98923.23
2023-04-18T17:43:57.200Z,98923.85
2023-04-18T17:46:24.952Z,98927.23
2023-04-18T17:48:52.547Z,98923.41
2023-04-18T17:51:20.118Z,98930.48
2023-04-18T17:53:47.676Z,98931.56
2023-04-18T17:56:15.294Z,98933.92
2023-04-18T17:58:42.977Z,98935.03
2023-04-18T18:01:17.542Z,98936.52
2023-04-18T18:03:46.641Z,98932.64
2023-04-18T18:06:15.510Z,98935.10
2023-04-18T18:08:43.463Z,98932.73
2023-04-18T18:11:11.220Z,98935.86
2023-04-18T18:13:39.064Z,98932.23
2023-04-18T18:16:07.318Z,98935.27
2023-04-18T18:18:34.982Z,98932.91
2023-04-18T18:21:02.766Z,98934.95
2023-04-18T18:23:30.478Z,98932.34
2023-04-18T18:25:58.329Z,98932.48
2023-04-18T18:28:26.187Z,98936.40
2023-04-18T18:30:53.791Z,98940.30
2023-04-18T18:33:21.711Z,98939.98
2023-04-18T18:35:50.317Z,98940.50
2023-04-18T18:38:17.900Z,98940.98
2023-04-18T18:40:45.574Z,98939.91
2023-04-18T18:43:13.321Z,98940.89
2023-04-18T18:45:41.365Z,98939.32
2023-04-18T18:48:11.858Z,98939.46
2023-04-18T18:50:39.728Z,98940.78
2023-04-18T18:53:07.740Z,98939.95
2023-04-18T18:55:35.333Z,98942.59
2023-04-18T18:58:02.882Z,98938.00
2023-04-18T19:00:31.302Z,98939.64
2023-04-18T19:02:59.379Z,98938.17
2023-04-18T19:05:27.208Z,98940.38
2023-04-18T19:07:55.042Z,98937.80
2023-04-18T19:10:22.784Z,98937.46
2023-04-18T19:12:50.655Z,98935.64
2023-04-18T19:15:19.256Z,98938.20
2023-04-18T19:17:46.845Z,98931.62
2023-04-18T19:20:14.655Z,98936.82
2023-04-18T19:22:42.331Z,98938.06
2023-04-18T19:25:10.165Z,98935.85
2023-04-18T19:27:37.772Z,98934.49
2023-04-18T19:30:06.019Z,98935.34
2023-04-18T19:32:33.668Z,98931.41
2023-04-18T19:35:01.277Z,98931.42
2023-04-18T19:37:28.857Z,98932.05
2023-04-18T19:39:56.514Z,98931.02
2023-04-18T19:42:24.074Z,98931.50
2023-04-18T19:44:51.628Z,98929.41
2023-04-18T19:47:19.201Z,98929.73
2023-04-18T19:49:46.807Z,98923.96
2023-04-18T19:52:14.430Z,98925.31
2023-04-18T19:54:41.986Z,98924.58
2023-04-18T19:57:09.641Z,98923.11
2023-04-18T19:59:37.190Z,98923.33
2023-04-18T20:02:06.233Z,98922.21
2023-04-18T20:04:34.380Z,98922.36
2023-04-18T20:07:02.677Z,98920.51
2023-04-18T20:09:30.223Z,98920.75
2023-04-18T20:11:57.820Z,98920.07
2023-04-18T20:14:25.432Z,98917.85
2023-04-18T20:16:53.122Z,98922.58
2023-04-18T20:19:20.886Z,98920.50
2023-04-18T20:21:48.457Z,98914.23
2023-04-18T20:24:16.101Z,98912.69
2023-04-18T20:26:43.680Z,98909.86
2023-04-18T20:29:11.205Z,98908.98
2023-04-18T20:31:38.752Z,98909.81
2023-04-18T20:34:06.320Z,98907.85
2023-04-18T20:36:33.905Z,98904.23
2023-04-18T20:39:01.486Z,98905.05
2023-04-18T20:41:29.062Z,98902.77
2023-04-18T20:43:56.599Z,98903.05
2023-04-18T20:46:24.197Z,98904.19
2023-04-18T20:48:51.785Z,98900.66
2023-04-18T20:51:19.344Z,98900.10
2023-04-18T20:53:46.931Z,98898.94
2023-04-18T20:56:14.498Z,98897.29
2023-04-18T20:58:42.120Z,98896.99
2023-04-18T21:01:09.709Z,98895.05
2023-04-18T21:03:37.491Z,98889.16
2023-04-18T21:06:05.200Z,98889.41
2023-04-18T21:08:33.156Z,98888.81
2023-04-18T21:11:01.185Z,98886.98
2023-04-18T21:13:28.753Z,98882.80
2023-04-18T21:15:56.365Z,98879.98
2023-04-18T21:18:24.118Z,98879.98
2023-04-18T21:20:51.663Z,98875.70
2023-04-18T21:23:19.358Z,98870.20
2023-04-18T21:25:46.909Z,98871.53
2023-04-18T21:28:14.513Z,98863.54
2023-04-18T21:30:42.260Z,98863.69
2023-04-18T21:33:09.877Z,98865.20
2023-04-18T21:35:37.423Z,98863.33
2023-04-18T21:38:05.156Z,98862.80
2023-04-18T21:40:32.729Z,98860.77
2023-04-18T21:43:00.302Z,98858.77
2023-04-18T21:45:27.903Z,98859.83
2023-04-18T21:47:55.549Z,98855.90
2023-04-18T21:50:23.242Z,98850.43
2023-04-18T21:52:50.803Z,98847.83
2023-04-18T21:55:18.379Z,98846.60
2023-04-18T21:57:45.903Z,98852.52
2023-04-18T22:00:13.913Z,98843.33
2023-04-18T22:02:41.541Z,98846.58
2023-04-18T22:05:09.548Z,98847.80
2023-04-18T22:07:50.142Z,98844.09
2023-04-18T22:10:25.121Z,98845.91
2023-04-18T22:12:52.684Z,98844.65
2023-04-18T22:15:20.447Z,98839.67
2023-04-18T22:17:48.772Z,98839.45
2023-04-18T22:20:16.768Z,98836.71
2023-04-18T22:22:44.346Z,98830.20
2023-04-18T22:25:11.908Z,98825.61
2023-04-18T22:27:39.808Z,98823.61
2023-04-18T22:30:08.168Z,98821.02
2023-04-18T22:32:35.760Z,98820.84
2023-04-18T22:35:03.646Z,98820.50
2023-04-18T22:37:31.213Z,98820.24
2023-04-18T22:39:58.856Z,98815.38
2023-04-18T22:42:26.451Z,98812.20
2023-04-18T22:44:54.014Z,98808.67
2023-04-18T22:47:21.629Z,98807.48
2023-04-18T22:49:49.199Z,98803.58
2023-04-18T22:52:16.832Z,98800.34
2023-04-18T22:54:44.531Z,98799.13
2023-04-18T22:57:12.156Z,98795.59
2023-04-18T22:59:39.809Z,98792.37
2023-04-18T23:02:07.730Z,98784.42
2023-04-18T23:04:35.811Z,98785.16
2023-04-18T23:07:03.421Z,98783.02
2023-04-18T23:09:31.200Z,98780.02
2023-04-18T23:11:58.851Z,98776.27
2023-04-18T23:14:26.397Z,98772.05
2023-04-18T23:16:54.028Z,98766.78
2023-04-18T23:19:21.886Z,98765.75
2023-04-18T23:21:49.856Z,98759.46
2023-04-18T23:24:17.491Z,98756.64
2023-04-18T23:26:45.069Z,98749.20
2023-04-18T23:29:12.754Z,98741.91
2023-04-18T23:31:40.352Z,98744.06
2023-04-18T23:34:08.108Z,98741.05
2023-04-18T23:36:35.665Z,98733.25
2023-04-18T23:39:03.325Z,98728.48
2023-04-18T23:41:30.916Z,98726.83
2023-04-18T23:43:59.600Z,98724.92
2023-04-18T23:46:27.548Z,98723.19
2023-04-18T23:48:55.172Z,98720.77
2023-04-18T23:51:22.748Z,98716.42
2023-04-18T23:53:50.337Z,98709.83
2023-04-18T23:56:17.960Z,98708.88
2023-04-18T23:58:45.537Z,98707.10
